createdAt,value
2019-05-30T00:01:34.828Z,100793.61
2019-05-30T00:04:03.063Z,100788.14
2019-05-30T00:06:29.491Z,100793.53
2019-05-30T00:08:56.297Z,100790.72
2019-05-30T00:11:22.734Z,100788.95
2019-05-30T00:13:48.916Z,100793.91
2019-05-30T00:16:15.175Z,100794.29
2019-05-30T00:18:41.326Z,100793.83
2019-05-30T00:21:08.708Z,100796.50
2019-05-30T00:23:35.189Z,100791.30
2019-05-30T00:26:01.438Z,100793.17
2019-05-30T00:28:27.561Z,100789.73
2019-05-30T00:30:53.826Z,100788.39
2019-05-30T00:33:19.978Z,100794.05
2019-05-30T00:35:46.142Z,100796.20
2019-05-30T00:38:12.688Z,100795.23
2019-05-30T00:40:38.826Z,100795.12
2019-05-30T00:43:06.191Z,100799.17
2019-05-30T00:45:32.589Z,100798.91
2019-05-30T00:48:00.038Z,100797.16
2019-05-30T00:50:26.404Z,100795.77
2019-05-30T00:52:52.612Z,100798.64
2019-05-30T00:55:18.790Z,100795.41
2019-05-30T00:57:44.997Z,100798.39
2019-05-30T01:00:11.767Z,100799.14
2019-05-30T01:02:37.964Z,100800.00
2019-05-30T01:05:07.933Z,100802.67
2019-05-30T01:07:34.402Z,100806.84
2019-05-30T01:10:00.973Z,100812.64
2019-05-30T01:12:34.035Z,100813.01
2019-05-30T01:15:01.103Z,100811.37
2019-05-30T01:17:27.479Z,100810.97
2019-05-30T01:19:53.742Z,100812.64
2019-05-30T01:22:20.051Z,100813.41
2019-05-30T01:24:46.506Z,100810.31
2019-05-30T01:27:13.130Z,100810.44
2019-05-30T01:29:39.249Z,100807.80
2019-05-30T01:32:24.376Z,100811.96
2019-05-30T01:34:50.538Z,100810.92
2019-05-30T01:37:17.024Z,100805.97
2019-05-30T01:39:43.166Z,100805.58
2019-05-30T01:42:09.395Z,100808.14
2019-05-30T01:44:35.542Z,100802.34
2019-05-30T01:47:02.062Z,100809.83
2019-05-30T01:49:28.248Z,100807.50
2019-05-30T01:51:54.443Z,100806.50
2019-05-30T01:54:20.834Z,100811.28
2019-05-30T01:56:47.243Z,100809.84
2019-05-30T01:59:13.393Z,100809.52
2019-05-30T02:01:39.620Z,100812.98
2019-05-30T02:04:07.212Z,100813.33
2019-05-30T02:06:33.548Z,100813.45
2019-05-30T02:09:01.127Z,100812.75
2019-05-30T02:11:27.379Z,100815.27
2019-05-30T02:13:53.915Z,100816.42
2019-05-30T02:16:20.074Z,100819.31
2019-05-30T02:18:46.271Z,100818.98
2019-05-30T02:21:12.424Z,100812.06
2019-05-30T02:23:38.622Z,100818.25
2019-05-30T02:26:04.760Z,100828.00
2019-05-30T02:28:31.069Z,100832.69
2019-05-30T02:30:57.262Z,100834.64
2019-05-30T02:33:23.592Z,100830.16
2019-05-30T02:35:49.750Z,100835.52
2019-05-30T02:38:15.968Z,100839.25
2019-05-30T02:40:42.119Z,100837.20
2019-05-30T02:43:11.512Z,100835.13
2019-05-30T02:45:36.398Z,100833.78
2019-05-30T02:48:03.315Z,100833.80
2019-05-30T02:50:29.561Z,100840.84
2019-05-30T02:52:55.791Z,100842.76
2019-05-30T02:55:21.983Z,100843.66
2019-05-30T02:57:48.191Z,100841.05
2019-05-30T03:00:17.678Z,100843.08
2019-05-30T03:02:43.571Z,100848.62
2019-05-30T03:05:12.728Z,100854.15
2019-05-30T03:07:38.463Z,100855.41
2019-05-30T03:10:07.674Z,100852.77
2019-05-30T03:12:35.531Z,100851.44
2019-05-30T03:15:09.295Z,100848.70
2019-05-30T03:17:35.196Z,100854.81
2019-05-30T03:20:04.976Z,100853.80
2019-05-30T03:22:29.882Z,100860.58
2019-05-30T03:24:56.051Z,100858.69
2019-05-30T03:27:22.265Z,100859.36
2019-05-30T03:29:48.956Z,100862.12
2019-05-30T03:33:00.237Z,100866.43
2019-05-30T03:34:43.378Z,100875.48
2019-05-30T03:37:18.820Z,100877.37
2019-05-30T03:39:37.675Z,100882.19
2019-05-30T03:42:04.548Z,100884.06
2019-05-30T03:44:30.882Z,100886.04
2019-05-30T03:47:00.640Z,100891.90
2019-05-30T03:49:31.728Z,100886.72
2019-05-30T03:52:00.173Z,100889.11
2019-05-30T03:54:26.474Z,100886.81
2019-05-30T03:57:04.735Z,100888.37
2019-05-30T03:59:37.357Z,100894.70
2019-05-30T04:02:29.856Z,100897.86
2019-05-30T04:05:14.203Z,100895.37
2019-05-30T04:07:47.590Z,100897.70
2019-05-30T04:10:15.871Z,100898.92
2019-05-30T04:13:31.587Z,100905.38
2019-05-30T04:15:57.747Z,100909.69
2019-05-30T04:18:24.021Z,100905.12
2019-05-30T04:20:50.169Z,100909.41
2019-05-30T04:23:16.947Z,100904.66
2019-05-30T04:25:44.125Z,100910.34
2019-05-30T04:28:12.029Z,100908.08
2019-05-30T04:30:38.399Z,100904.30
2019-05-30T04:33:17.229Z,100909.56
2019-05-30T04:35:32.655Z,100908.53
2019-05-30T04:37:58.811Z,100911.23
2019-05-30T04:40:25.032Z,100908.11
2019-05-30T04:42:51.155Z,100913.89
2019-05-30T04:45:18.723Z,100916.44
2019-05-30T04:47:46.039Z,100917.27
2019-05-30T04:50:14.302Z,100913.65
2019-05-30T04:52:40.619Z,100919.91
2019-05-30T04:55:08.150Z,100919.47
2019-05-30T04:57:34.372Z,100918.08
2019-05-30T05:00:00.919Z,100919.06
2019-05-30T05:02:27.077Z,100924.09
2019-05-30T05:04:53.294Z,100924.27
2019-05-30T05:07:19.885Z,100917.63
2019-05-30T05:09:46.211Z,100915.82
2019-05-30T05:12:12.383Z,100919.34
2019-05-30T05:14:38.613Z,100922.00
2019-05-30T05:17:04.759Z,100922.65
2019-05-30T05:19:30.994Z,100925.24
2019-05-30T05:21:57.211Z,100923.78
2019-05-30T05:24:23.727Z,100927.70
2019-05-30T05:26:50.077Z,100926.69
2019-05-30T05:29:16.235Z,100929.30
2019-05-30T05:31:42.448Z,100928.34
2019-05-30T05:34:08.588Z,100931.73
2019-05-30T05:36:34.847Z,100933.98
2019-05-30T05:39:00.990Z,100931.32
2019-05-30T05:41:28.495Z,100932.47
2019-05-30T05:43:54.809Z,100928.36
2019-05-30T05:46:22.555Z,100925.25
2019-05-30T05:48:48.895Z,100935.03
2019-05-30T05:51:16.472Z,100928.11
2019-05-30T05:53:42.682Z,100931.30
2019-05-30T05:56:08.931Z,100929.11
2019-05-30T05:58:35.091Z,100932.72
2019-05-30T06:01:01.386Z,100936.66
2019-05-30T06:03:28.312Z,100939.66
2019-05-30T06:05:54.545Z,100935.98
2019-05-30T06:08:21.452Z,100931.22
2019-05-30T06:10:47.827Z,100937.53
2019-05-30T06:13:13.974Z,100936.70
2019-05-30T06:15:40.130Z,100937.01
2019-05-30T06:18:06.334Z,100935.44
2019-05-30T06:20:32.489Z,100936.45
2019-05-30T06:22:58.729Z,100933.43
2019-05-30T06:25:29.544Z,100940.08
2019-05-30T06:27:53.030Z,100935.11
2019-05-30T06:30:20.357Z,100927.54
2019-05-30T06:32:46.787Z,100933.55
2019-05-30T06:35:13.140Z,100935.01
2019-05-30T06:37:39.878Z,100929.98
2019-05-30T06:40:06.887Z,100925.31
2019-05-30T06:42:34.497Z,100922.30
2019-05-30T06:45:00.972Z,100924.73
2019-05-30T06:47:28.377Z,100922.46
2019-05-30T06:49:54.739Z,100918.79
2019-05-30T06:52:22.794Z,100922.69
2019-05-30T06:54:49.058Z,100922.44
2019-05-30T06:57:15.273Z,100920.36
2019-05-30T06:59:41.412Z,100920.38
2019-05-30T07:02:07.836Z,100918.37
2019-05-30T07:04:50.088Z,100921.80
2019-05-30T07:07:05.749Z,100921.48
2019-05-30T07:09:30.989Z,100920.09
2019-05-30T07:11:57.356Z,100924.24
2019-05-30T07:14:23.532Z,100918.31
2019-05-30T07:16:49.713Z,100916.62
2019-05-30T07:19:15.858Z,100918.76
2019-05-30T07:21:42.074Z,100917.36
2019-05-30T07:24:08.270Z,100912.41
2019-05-30T07:26:34.428Z,100916.31
2019-05-30T07:29:00.954Z,100917.77
2019-05-30T07:31:28.068Z,100914.36
2019-05-30T07:33:54.822Z,100918.83
2019-05-30T07:36:20.941Z,100918.09
2019-05-30T07:38:47.480Z,100920.77
2019-05-30T07:41:13.606Z,100915.67
2019-05-30T07:43:39.976Z,100919.95
2019-05-30T07:46:06.218Z,100918.48
2019-05-30T07:48:32.465Z,100918.66
2019-05-30T07:50:58.675Z,100914.61
2019-05-30T07:53:26.566Z,100908.83
2019-05-30T07:55:53.243Z,100909.42
2019-05-30T07:58:19.454Z,100904.84
2019-05-30T08:00:45.596Z,100903.97
2019-05-30T08:03:11.819Z,100896.72
2019-05-30T08:05:38.984Z,100897.90
2019-05-30T08:08:05.793Z,100902.83
2019-05-30T08:10:32.061Z,100895.66
2019-05-30T08:12:59.425Z,100898.14
2019-05-30T08:15:25.558Z,100899.64
2019-05-30T08:17:51.875Z,100904.41
2019-05-30T08:20:18.219Z,100902.40
2019-05-30T08:22:45.049Z,100901.77
2019-05-30T08:25:11.677Z,100895.63
2019-05-30T08:27:38.650Z,100901.75
2019-05-30T08:30:11.816Z,100893.89
2019-05-30T08:32:38.940Z,100892.20
2019-05-30T08:35:05.971Z,100897.95
2019-05-30T08:37:33.134Z,100883.91
2019-05-30T08:39:59.467Z,100889.25
2019-05-30T08:42:27.857Z,100891.06
2019-05-30T08:44:53.809Z,100891.19
2019-05-30T08:47:19.991Z,100888.39
2019-05-30T08:49:46.207Z,100893.08
2019-05-30T08:52:12.350Z,100892.80
2019-05-30T08:54:38.626Z,100891.74
2019-05-30T08:57:05.096Z,100888.21
2019-05-30T08:59:32.328Z,100889.88
2019-05-30T09:01:58.676Z,100888.95
2019-05-30T09:04:24.939Z,100890.03
2019-05-30T09:06:51.079Z,100887.83
2019-05-30T09:09:17.303Z,100886.27
2019-05-30T09:11:44.452Z,100887.35
2019-05-30T09:14:10.792Z,100875.73
2019-05-30T09:16:36.958Z,100874.89
2019-05-30T09:19:03.162Z,100883.38
2019-05-30T09:21:29.317Z,100877.48
2019-05-30T09:23:58.899Z,100874.09
2019-05-30T09:26:23.743Z,100872.08
2019-05-30T09:28:49.967Z,100871.30
2019-05-30T09:31:16.129Z,100876.09
2019-05-30T09:33:42.764Z,100868.23
2019-05-30T09:36:13.160Z,100865.30
2019-05-30T09:38:37.054Z,100862.34
2019-05-30T09:41:03.383Z,100856.95
2019-05-30T09:43:29.516Z,100861.81
2019-05-30T09:45:55.918Z,100855.66
2019-05-30T09:48:22.068Z,100858.88
2019-05-30T09:50:48.803Z,100853.79
2019-05-30T09:53:15.114Z,100858.02
2019-05-30T09:55:42.934Z,100855.81
2019-05-30T09:58:09.374Z,100853.94
2019-05-30T10:00:35.684Z,100855.06
2019-05-30T10:03:01.849Z,100850.85
2019-05-30T10:05:28.154Z,100855.48
2019-05-30T10:07:54.610Z,100861.33
2019-05-30T10:10:21.805Z,100856.50
2019-05-30T10:12:48.548Z,100848.81
2019-05-30T10:15:16.910Z,100847.41
2019-05-30T10:17:45.536Z,100852.39
2019-05-30T10:20:12.947Z,100849.48
2019-05-30T10:22:39.374Z,100846.09
2019-05-30T10:25:06.679Z,100836.56
2019-05-30T10:27:32.837Z,100846.60
2019-05-30T10:29:59.037Z,100837.50
2019-05-30T10:32:25.597Z,100829.73
2019-05-30T10:34:52.158Z,100828.56
2019-05-30T10:37:18.633Z,100821.22
2019-05-30T10:39:45.996Z,100823.63
2019-05-30T10:42:13.208Z,100819.31
2019-05-30T10:44:39.422Z,100821.42
2019-05-30T10:47:05.946Z,100814.35
2019-05-30T10:49:35.014Z,100810.09
2019-05-30T10:52:00.612Z,100812.45
2019-05-30T10:54:26.737Z,100808.72
2019-05-30T10:56:53.670Z,100801.81
2019-05-30T10:59:20.000Z,100811.13
2019-05-30T11:01:48.156Z,100808.18
2019-05-30T11:04:14.287Z,100796.67
2019-05-30T11:07:18.261Z,100797.83
2019-05-30T11:09:50.568Z,100799.01
2019-05-30T11:12:17.195Z,100791.05
2019-05-30T11:14:43.324Z,100790.98
2019-05-30T11:17:09.860Z,100793.91
2019-05-30T11:19:36.025Z,100786.03
2019-05-30T11:22:02.244Z,100785.66
2019-05-30T11:24:28.485Z,100780.97
2019-05-30T11:26:55.562Z,100784.02
2019-05-30T11:29:22.759Z,100773.81
2019-05-30T11:31:48.970Z,100769.43
2019-05-30T11:34:15.122Z,100771.47
2019-05-30T11:36:41.360Z,100765.00
2019-05-30T11:39:07.623Z,100760.86
2019-05-30T11:41:33.837Z,100759.56
2019-05-30T11:44:01.909Z,100756.27
2019-05-30T11:46:28.323Z,100758.12
2019-05-30T11:48:55.637Z,100757.00
2019-05-30T11:51:21.875Z,100754.72
2019-05-30T11:53:48.284Z,100751.31
2019-05-30T11:56:14.520Z,100748.52
2019-05-30T11:58:40.960Z,100739.88
2019-05-30T12:01:07.174Z,100732.88
2019-05-30T12:03:33.312Z,100729.97
2019-05-30T12:06:00.733Z,100722.89
2019-05-30T12:08:27.123Z,100728.83
2019-05-30T12:10:53.269Z,100728.02
2019-05-30T12:13:20.061Z,100726.68
2019-05-30T12:15:46.270Z,100716.09
2019-05-30T12:18:12.463Z,100719.45
2019-05-30T12:20:40.924Z,100724.97
2019-05-30T12:23:07.667Z,100720.94
2019-05-30T12:25:34.162Z,100727.14
2019-05-30T12:28:00.640Z,100717.54
2019-05-30T12:30:28.087Z,100717.36
2019-05-30T12:32:54.290Z,100707.34
2019-05-30T12:35:20.939Z,100710.05
2019-05-30T12:37:54.903Z,100705.09
2019-05-30T12:40:15.936Z,100705.48
2019-05-30T12:42:42.179Z,100701.27
2019-05-30T12:45:09.689Z,100700.02
2019-05-30T12:47:36.196Z,100691.53
2019-05-30T12:50:06.380Z,100704.00
2019-05-30T12:52:32.620Z,100700.97
2019-05-30T12:54:58.796Z,100703.09
2019-05-30T12:57:24.990Z,100704.75
2019-05-30T12:59:51.133Z,100700.56
2019-05-30T13:02:17.356Z,100701.23
2019-05-30T13:04:43.501Z,100699.06
2019-05-30T13:07:09.809Z,100693.48
2019-05-30T13:09:35.988Z,100694.70
2019-05-30T13:12:02.586Z,100691.37
2019-05-30T13:14:28.958Z,100691.25
2019-05-30T13:16:55.643Z,100698.88
2019-05-30T13:19:22.025Z,100695.30
2019-05-30T13:21:48.167Z,100692.27
2019-05-30T13:24:14.477Z,100693.81
2019-05-30T13:26:40.637Z,100687.60
2019-05-30T13:29:06.864Z,100688.26
2019-05-30T13:31:33.329Z,100682.13
2019-05-30T13:34:00.950Z,100686.64
2019-05-30T13:36:27.505Z,100680.82
2019-05-30T13:38:53.713Z,100688.39
2019-05-30T13:41:19.855Z,100685.22
2019-05-30T13:43:46.076Z,100683.83
2019-05-30T13:46:12.700Z,100680.38
2019-05-30T13:48:38.923Z,100684.68
2019-05-30T13:51:05.064Z,100685.28
2019-05-30T13:53:31.326Z,100677.39
2019-05-30T13:55:57.732Z,100681.05
2019-05-30T13:58:23.945Z,100681.05
2019-05-30T14:00:50.106Z,100682.77
2019-05-30T14:03:16.320Z,100683.79
2019-05-30T14:05:42.459Z,100683.69
2019-05-30T14:08:16.316Z,100692.55
2019-05-30T14:10:39.729Z,100679.48
2019-05-30T14:13:06.689Z,100687.27
2019-05-30T14:15:33.121Z,100684.42
2019-05-30T14:18:01.274Z,100678.55
2019-05-30T14:20:29.570Z,100680.05
2019-05-30T14:22:55.763Z,100674.06
2019-05-30T14:25:22.368Z,100678.14
2019-05-30T14:27:48.550Z,100676.63
2019-05-30T14:30:16.956Z,100674.22
2019-05-30T14:32:43.108Z,100677.26
2019-05-30T14:35:13.323Z,100673.56
2019-05-30T14:37:38.995Z,100676.74
2019-05-30T14:40:09.224Z,100676.69
2019-05-30T14:42:35.563Z,100670.65
2019-05-30T14:45:06.395Z,100668.58
2019-05-30T14:47:32.729Z,100672.46
2019-05-30T14:49:58.934Z,100669.28
2019-05-30T14:52:25.085Z,100668.36
2019-05-30T14:54:51.296Z,100670.11
2019-05-30T14:57:17.446Z,100667.30
2019-05-30T14:59:43.746Z,100668.14
2019-05-30T15:02:11.198Z,100663.43
2019-05-30T15:04:37.598Z,100667.17
2019-05-30T15:07:03.731Z,100666.39
2019-05-30T15:09:29.962Z,100661.46
2019-05-30T15:11:56.100Z,100663.51
2019-05-30T15:14:22.402Z,100662.06
2019-05-30T15:16:48.557Z,100666.36
2019-05-30T15:19:14.784Z,100661.79
2019-05-30T15:21:40.930Z,100658.72
2019-05-30T15:24:07.737Z,100661.23
2019-05-30T15:26:34.416Z,100660.91
2019-05-30T15:29:00.949Z,100657.59
2019-05-30T15:31:27.114Z,100646.02
2019-05-30T15:33:53.270Z,100648.65
2019-05-30T15:36:19.507Z,100651.94
2019-05-30T15:38:45.993Z,100650.95
2019-05-30T15:41:13.185Z,100648.94
2019-05-30T15:43:39.551Z,100647.70
2019-05-30T15:46:05.851Z,100650.80
2019-05-30T15:48:31.995Z,100646.58
2019-05-30T15:50:58.223Z,100645.08
2019-05-30T15:53:24.367Z,100643.42
2019-05-30T15:55:50.629Z,100646.20
2019-05-30T15:58:18.119Z,100643.33
2019-05-30T16:00:44.436Z,100642.72
2019-05-30T16:03:10.599Z,100639.95
2019-05-30T16:05:36.811Z,100639.24
2019-05-30T16:08:02.966Z,100639.80
2019-05-30T16:10:29.201Z,100633.03
2019-05-30T16:12:55.343Z,100636.70
2019-05-30T16:15:21.787Z,100641.27
2019-05-30T16:17:48.021Z,100635.42
2019-05-30T16:20:14.421Z,100629.64
2019-05-30T16:22:41.572Z,100627.81
2019-05-30T16:25:08.478Z,100628.16
2019-05-30T16:27:34.719Z,100632.84
2019-05-30T16:30:01.077Z,100631.29
2019-05-30T16:32:27.202Z,100632.58
2019-05-30T16:34:53.420Z,100631.36
2019-05-30T16:37:20.169Z,100633.55
2019-05-30T16:40:04.081Z,100629.38
2019-05-30T16:42:14.553Z,100633.48
2019-05-30T16:44:40.692Z,100627.61
2019-05-30T16:47:07.033Z,100630.99
2019-05-30T16:49:33.182Z,100634.38
2019-05-30T16:51:59.382Z,100630.05
2019-05-30T16:54:25.524Z,100625.02
2019-05-30T16:56:55.999Z,100625.10
2019-05-30T16:59:22.850Z,100629.06
2019-05-30T17:01:57.622Z,100627.56
2019-05-30T17:04:17.220Z,100626.70
2019-05-30T17:06:43.443Z,100626.00
2019-05-30T17:09:09.622Z,100624.46
2019-05-30T17:11:35.859Z,100622.17
2019-05-30T17:14:01.997Z,100620.18
2019-05-30T17:16:28.479Z,100620.27
2019-05-30T17:18:56.223Z,100621.66
2019-05-30T17:21:22.783Z,100622.48
2019-05-30T17:23:48.997Z,100621.86
2019-05-30T17:26:15.196Z,100617.83
2019-05-30T17:28:41.334Z,100615.83
2019-05-30T17:31:07.546Z,100614.92
2019-05-30T17:33:33.739Z,100618.02
2019-05-30T17:35:59.932Z,100617.06
2019-05-30T17:38:26.581Z,100612.66
2019-05-30T17:40:52.800Z,100617.80
2019-05-30T17:43:19.022Z,100625.20
2019-05-30T17:45:45.264Z,100632.28
2019-05-30T17:48:16.392Z,100632.29
2019-05-30T17:50:39.497Z,100630.95
2019-05-30T17:53:05.719Z,100632.11
2019-05-30T17:55:31.855Z,100628.83
2019-05-30T17:57:58.083Z,100630.53
2019-05-30T18:00:24.609Z,100629.67
2019-05-30T18:02:50.809Z,100627.50
2019-05-30T18:05:17.252Z,100627.06
2019-05-30T18:07:43.479Z,100631.34
2019-05-30T18:10:10.222Z,100630.30
2019-05-30T18:12:36.703Z,100636.01
2019-05-30T18:15:08.999Z,100629.80
2019-05-30T18:17:35.208Z,100628.08
2019-05-30T18:20:03.351Z,100629.41
2019-05-30T18:22:29.824Z,100630.52
2019-05-30T18:24:56.259Z,100634.89
2019-05-30T18:27:23.818Z,100632.17
2019-05-30T18:29:50.106Z,100630.99
2019-05-30T18:32:16.320Z,100629.41
2019-05-30T18:34:42.461Z,100627.22
2019-05-30T18:37:08.784Z,100628.05
2019-05-30T18:39:34.924Z,100631.35
2019-05-30T18:42:01.440Z,100624.11
2019-05-30T18:44:30.207Z,100626.12
2019-05-30T18:46:55.786Z,100626.61
2019-05-30T18:49:23.015Z,100622.12
2019-05-30T18:51:49.277Z,100621.95
2019-05-30T18:54:15.485Z,100621.45
2019-05-30T18:56:41.660Z,100621.46
2019-05-30T18:59:07.886Z,100630.91
2019-05-30T19:01:34.033Z,100632.09
2019-05-30T19:04:00.280Z,100632.58
2019-05-30T19:06:28.110Z,100639.11
2019-05-30T19:08:54.823Z,100637.06
2019-05-30T19:11:28.225Z,100637.89
2019-05-30T19:13:51.282Z,100635.98
2019-05-30T19:16:17.822Z,100636.48
2019-05-30T19:18:44.092Z,100646.27
2019-05-30T19:21:10.241Z,100647.30
2019-05-30T19:23:39.597Z,100653.91
2019-05-30T19:26:04.517Z,100652.07
2019-05-30T19:28:31.138Z,100653.20
2019-05-30T19:30:57.305Z,100651.09
2019-05-30T19:33:23.512Z,100655.59
2019-05-30T19:35:49.882Z,100654.16
2019-05-30T19:38:16.172Z,100655.33
2019-05-30T19:40:42.314Z,100660.11
2019-05-30T19:43:08.880Z,100659.69
2019-05-30T19:45:36.152Z,100652.55
2019-05-30T19:48:02.502Z,100661.67
2019-05-30T19:50:28.702Z,100660.71
2019-05-30T19:52:54.979Z,100664.02
2019-05-30T19:55:21.687Z,100665.77
2019-05-30T19:57:48.119Z,100670.71
2019-05-30T20:00:15.035Z,100673.45
2019-05-30T20:02:41.184Z,100677.93
2019-05-30T20:05:07.999Z,100674.46
2019-05-30T20:07:34.600Z,100674.17
2019-05-30T20:10:02.040Z,100682.77
2019-05-30T20:12:28.340Z,100676.28
2019-05-30T20:14:54.564Z,100680.13
2019-05-30T20:17:21.068Z,100681.00
2019-05-30T20:19:47.622Z,100681.52
2019-05-30T20:22:13.805Z,100680.00
2019-05-30T20:24:40.590Z,100684.03
2019-05-30T20:27:06.766Z,100681.54
2019-05-30T20:29:32.977Z,100685.22
2019-05-30T20:31:59.125Z,100682.41
2019-05-30T20:34:25.317Z,100680.42
2019-05-30T20:36:51.459Z,100693.00
2019-05-30T20:39:17.998Z,100690.66
2019-05-30T20:41:44.135Z,100692.03
2019-05-30T20:44:10.343Z,100691.55
2019-05-30T20:46:37.075Z,100696.77
2019-05-30T20:49:03.674Z,100697.96
2019-05-30T20:51:29.816Z,100702.50
2019-05-30T20:53:56.035Z,100704.50
2019-05-30T20:56:22.184Z,100702.34
2019-05-30T20:58:48.406Z,100702.67
2019-05-30T21:01:14.559Z,100708.55
2019-05-30T21:03:41.777Z,100711.72
2019-05-30T21:06:08.465Z,100714.26
2019-05-30T21:08:35.803Z,100716.27
2019-05-30T21:11:03.800Z,100713.80
2019-05-30T21:13:33.156Z,100716.30
2019-05-30T21:16:01.071Z,100722.17
2019-05-30T21:18:29.148Z,100720.02
2019-05-30T21:20:55.341Z,100726.41
2019-05-30T21:23:21.492Z,100724.23
2019-05-30T21:25:47.762Z,100721.74
2019-05-30T21:28:13.997Z,100721.59
2019-05-30T21:30:41.310Z,100722.28
2019-05-30T21:33:07.629Z,100722.62
2019-05-30T21:35:33.882Z,100720.27
2019-05-30T21:38:00.137Z,100724.66
2019-05-30T21:40:26.442Z,100723.97
2019-05-30T21:43:04.665Z,100723.99
2019-05-30T21:45:20.814Z,100723.00
2019-05-30T21:47:47.030Z,100726.66
2019-05-30T21:50:16.922Z,100726.31
2019-05-30T21:52:43.590Z,100729.81
2019-05-30T21:55:10.007Z,100736.02
2019-05-30T21:57:36.471Z,100729.66
2019-05-30T22:00:12.688Z,100735.70
2019-05-30T22:02:40.312Z,100733.56
2019-05-30T22:05:07.038Z,100732.38
2019-05-30T22:07:33.190Z,100733.20
2019-05-30T22:09:59.411Z,100731.03
2019-05-30T22:12:25.833Z,100733.72
2019-05-30T22:14:52.067Z,100736.94
2019-05-30T22:17:18.309Z,100737.97
2019-05-30T22:19:44.457Z,100745.35
2019-05-30T22:22:10.645Z,100742.84
2019-05-30T22:24:37.122Z,100745.17
2019-05-30T22:27:03.325Z,100739.11
2019-05-30T22:29:29.493Z,100745.63
2019-05-30T22:31:55.808Z,100749.00
2019-05-30T22:34:21.977Z,100745.81
2019-05-30T22:36:48.934Z,100747.33
2019-05-30T22:39:15.213Z,100741.29
2019-05-30T22:41:41.490Z,100744.64
2019-05-30T22:44:07.642Z,100740.44
2019-05-30T22:46:34.023Z,100738.59
2019-05-30T22:49:00.168Z,100741.80
2019-05-30T22:51:27.631Z,100738.78
2019-05-30T22:53:53.950Z,100739.31
2019-05-30T22:56:20.362Z,100739.33
2019-05-30T22:58:47.832Z,100740.03
2019-05-30T23:01:14.115Z,100737.86
2019-05-30T23:03:40.256Z,100742.59
2019-05-30T23:06:07.003Z,100748.63
2019-05-30T23:08:33.192Z,100745.48
2019-05-30T23:10:59.456Z,100745.81
2019-05-30T23:13:39.777Z,100749.18
2019-05-30T23:15:54.250Z,100744.81
2019-05-30T23:18:20.518Z,100742.83
2019-05-30T23:20:46.739Z,100741.00
2019-05-30T23:23:12.886Z,100740.16
2019-05-30T23:25:39.302Z,100740.84
2019-05-30T23:28:05.509Z,100736.81
2019-05-30T23:30:31.694Z,100740.66
2019-05-30T23:32:58.438Z,100734.64
2019-05-30T23:35:24.875Z,100735.32
2019-05-30T23:37:51.583Z,100730.34
2019-05-30T23:40:19.162Z,100724.66
2019-05-30T23:42:45.385Z,100731.22
2019-05-30T23:45:11.725Z,100727.09
2019-05-30T23:47:37.994Z,100729.42
2019-05-30T23:50:05.931Z,100730.61
2019-05-30T23:52:32.422Z,100730.09
2019-05-30T23:54:58.564Z,100731.93
2019-05-30T23:57:24.779Z,100733.80
2019-05-30T23:59:50.925Z,100731.83
